createdAt,value
2019-03-22T00:01:46.320Z,97833.88
2019-03-22T00:04:17.825Z,97834.63
2019-03-22T00:06:47.678Z,97835.27
2019-03-22T00:09:17.371Z,97855.39
2019-03-22T00:11:48.256Z,97834.66
2019-03-22T00:14:19.792Z,97827.94
2019-03-22T00:16:51.338Z,97826.91
2019-03-22T00:19:20.939Z,97826.67
2019-03-22T00:21:50.640Z,97826.81
2019-03-22T00:24:20.513Z,97823.73
2019-03-22T00:26:50.150Z,97825.84
2019-03-22T00:29:19.766Z,97822.82
2019-03-22T00:31:51.164Z,97833.23
2019-03-22T00:34:20.887Z,97825.66
2019-03-22T00:36:52.214Z,97823.64
2019-03-22T00:39:21.937Z,97818.73
2019-03-22T00:41:51.521Z,97808.38
2019-03-22T00:44:21.141Z,97806.36
2019-03-22T00:46:52.326Z,97811.86
2019-03-22T00:49:22.199Z,97808.95
2019-03-22T00:51:51.795Z,97801.91
2019-03-22T00:54:22.127Z,97806.30
2019-03-22T00:56:58.358Z,97833.11
2019-03-22T00:59:31.122Z,97802.78
2019-03-22T01:02:01.811Z,97796.28
2019-03-22T01:04:35.001Z,97794.01
2019-03-22T01:07:04.673Z,97791.89
2019-03-22T01:09:36.802Z,97788.06
2019-03-22T01:12:07.844Z,97783.59
2019-03-22T01:14:41.712Z,97790.87
2019-03-22T01:17:11.439Z,97792.73
2019-03-22T01:19:41.916Z,97793.50
2019-03-22T01:22:15.059Z,97784.22
2019-03-22T01:24:48.025Z,97787.93
2019-03-22T01:27:18.722Z,97780.12
2019-03-22T01:29:49.596Z,96448.73
2019-03-22T01:32:23.241Z,97785.63
2019-03-22T01:34:53.381Z,97710.31
2019-03-22T01:37:24.731Z,97771.34
2019-03-22T01:39:54.709Z,97772.16
2019-03-22T01:42:27.802Z,97775.19
2019-03-22T01:45:00.813Z,97771.98
2019-03-22T01:47:32.161Z,97780.36
2019-03-22T01:50:02.005Z,97776.34
2019-03-22T01:52:31.644Z,97771.77
2019-03-22T01:55:01.286Z,97773.45
2019-03-22T01:57:33.400Z,97769.41
2019-03-22T02:00:03.372Z,97765.02
2019-03-22T02:02:34.450Z,97759.02
2019-03-22T02:05:07.856Z,97759.40
2019-03-22T02:07:37.532Z,97760.81
2019-03-22T02:10:07.325Z,97760.89
2019-03-22T02:12:41.243Z,97766.33
2019-03-22T02:15:37.500Z,97773.48
2019-03-22T02:18:08.583Z,97774.11
2019-03-22T02:20:39.521Z,97772.69
2019-03-22T02:23:09.544Z,97773.70
2019-03-22T02:25:39.163Z,97773.13
2019-03-22T02:28:09.132Z,97769.58
2019-03-22T02:30:38.745Z,97770.80
2019-03-22T02:33:08.360Z,97765.02
2019-03-22T02:35:38.465Z,97763.40
2019-03-22T02:38:12.602Z,97795.14
2019-03-22T02:40:43.318Z,97768.78
2019-03-22T02:43:13.080Z,97763.70
2019-03-22T02:45:44.339Z,97758.15
2019-03-22T02:48:14.015Z,97760.25
2019-03-22T02:50:45.424Z,97763.88
2019-03-22T02:53:15.389Z,97760.56
2019-03-22T02:55:45.250Z,97759.77
2019-03-22T02:58:21.096Z,97755.30
2019-03-22T03:00:50.053Z,97759.72
2019-03-22T03:03:19.630Z,97755.30
2019-03-22T03:05:49.596Z,97759.83
2019-03-22T03:08:19.210Z,97750.74
2019-03-22T03:10:48.881Z,97762.88
2019-03-22T03:13:18.680Z,97759.56
2019-03-22T03:15:51.404Z,97753.56
2019-03-22T03:18:20.994Z,97754.38
2019-03-22T03:20:50.587Z,97755.52
2019-03-22T03:23:22.983Z,97760.55
2019-03-22T03:25:52.653Z,97753.58
2019-03-22T03:28:35.978Z,97746.13
2019-03-22T03:30:54.519Z,97751.97
2019-03-22T03:33:28.749Z,97756.31
2019-03-22T03:35:58.459Z,97757.83
2019-03-22T03:38:31.183Z,97753.13
2019-03-22T03:41:01.181Z,97760.43
2019-03-22T03:43:32.115Z,97761.30
2019-03-22T03:46:01.746Z,97766.39
2019-03-22T03:48:34.210Z,97768.77
2019-03-22T03:51:03.889Z,97763.43
2019-03-22T03:53:34.635Z,97762.63
2019-03-22T03:56:07.405Z,97763.05
2019-03-22T03:58:51.200Z,97764.31
2019-03-22T04:01:12.457Z,97768.95
2019-03-22T04:03:42.471Z,97772.75
2019-03-22T04:06:15.107Z,97766.78
2019-03-22T04:08:44.700Z,97769.84
2019-03-22T04:11:14.383Z,97770.21
2019-03-22T04:13:49.964Z,97485.56
2019-03-22T04:16:21.282Z,97778.86
2019-03-22T04:18:53.895Z,97770.75
2019-03-22T04:21:23.535Z,97778.16
2019-03-22T04:23:53.155Z,97774.04
2019-03-22T04:26:25.835Z,97777.91
2019-03-22T04:29:07.513Z,97776.97
2019-03-22T04:31:31.805Z,97777.42
2019-03-22T04:34:03.172Z,97780.67
2019-03-22T04:36:32.964Z,97776.97
2019-03-22T04:39:02.947Z,97774.41
2019-03-22T04:41:32.791Z,97783.52
2019-03-22T04:44:02.517Z,96738.00
2019-03-22T04:46:32.722Z,97779.42
2019-03-22T04:49:03.744Z,97781.24
2019-03-22T04:51:33.501Z,97781.48
2019-03-22T04:54:09.904Z,97778.28
2019-03-22T04:56:41.302Z,97783.54
2019-03-22T04:59:19.324Z,97788.02
2019-03-22T05:01:50.448Z,97780.23
2019-03-22T05:04:24.782Z,97785.63
2019-03-22T05:06:55.863Z,97787.68
2019-03-22T05:09:39.841Z,97793.20
2019-03-22T05:12:14.296Z,97792.64
2019-03-22T05:14:44.628Z,97799.38
2019-03-22T05:17:26.862Z,97795.30
2019-03-22T05:19:57.991Z,97788.95
2019-03-22T05:22:37.434Z,97800.06
2019-03-22T05:25:11.012Z,97790.45
2019-03-22T05:27:42.150Z,97779.58
2019-03-22T05:30:30.145Z,97787.08
2019-03-22T05:32:59.760Z,97787.92
2019-03-22T05:35:38.374Z,97793.08
2019-03-22T05:38:08.211Z,97794.80
2019-03-22T05:40:37.912Z,97794.68
2019-03-22T05:43:10.479Z,97790.23
2019-03-22T05:45:40.222Z,97792.69
2019-03-22T05:48:11.336Z,97793.25
2019-03-22T05:50:42.403Z,97467.91
2019-03-22T05:53:13.298Z,97794.23
2019-03-22T05:55:42.914Z,97790.20
2019-03-22T05:58:13.509Z,97790.15
2019-03-22T06:00:45.129Z,97791.81
2019-03-22T06:03:24.004Z,97796.95
2019-03-22T06:05:53.891Z,97793.96
2019-03-22T06:08:27.431Z,97800.56
2019-03-22T06:10:57.147Z,97795.87
2019-03-22T06:13:27.998Z,97795.06
2019-03-22T06:16:01.324Z,97802.69
2019-03-22T06:18:31.258Z,97802.86
2019-03-22T06:21:04.610Z,97808.40
2019-03-22T06:23:44.463Z,97811.66
2019-03-22T06:26:15.176Z,97812.98
2019-03-22T06:28:44.811Z,97809.83
2019-03-22T06:31:16.821Z,97815.00
2019-03-22T06:33:48.256Z,97807.51
2019-03-22T06:36:20.207Z,97814.39
2019-03-22T06:38:49.882Z,97817.67
2019-03-22T06:41:19.495Z,97819.47
2019-03-22T06:43:52.152Z,97819.91
2019-03-22T06:46:23.948Z,97823.03
2019-03-22T06:48:53.608Z,97821.85
2019-03-22T06:51:23.371Z,97826.95
2019-03-22T06:53:56.625Z,97827.71
2019-03-22T06:56:26.363Z,97828.48
2019-03-22T06:58:55.973Z,97837.21
2019-03-22T07:01:26.220Z,97834.73
2019-03-22T07:03:56.997Z,97833.98
2019-03-22T07:06:26.697Z,97830.07
2019-03-22T07:09:06.626Z,97859.13
2019-03-22T07:11:36.649Z,97829.55
2019-03-22T07:14:08.376Z,97831.84
2019-03-22T07:16:41.402Z,97829.11
2019-03-22T07:19:12.372Z,97830.19
2019-03-22T07:21:45.096Z,97828.87
2019-03-22T07:24:14.828Z,97824.74
2019-03-22T07:26:44.700Z,97824.13
2019-03-22T07:29:14.348Z,97822.61
2019-03-22T07:31:45.101Z,97816.80
2019-03-22T07:34:15.040Z,97817.62
2019-03-22T07:36:46.906Z,97816.22
2019-03-22T07:39:25.586Z,97816.43
2019-03-22T07:41:57.361Z,97816.93
2019-03-22T07:44:27.187Z,97816.43
2019-03-22T07:46:59.703Z,97813.56
2019-03-22T07:49:37.193Z,97809.11
2019-03-22T07:52:06.818Z,97808.55
2019-03-22T07:54:38.185Z,97813.75
2019-03-22T07:57:13.808Z,97807.52
2019-03-22T07:59:44.519Z,97797.28
2019-03-22T08:02:14.122Z,97796.22
2019-03-22T08:04:45.158Z,97787.40
2019-03-22T08:07:14.970Z,97783.72
2019-03-22T08:09:46.675Z,97780.34
2019-03-22T08:12:19.504Z,97781.20
2019-03-22T08:14:51.616Z,97441.98
2019-03-22T08:17:22.997Z,97777.63
2019-03-22T08:19:52.934Z,97777.52
2019-03-22T08:22:22.805Z,97775.34
2019-03-22T08:24:52.720Z,97776.08
2019-03-22T08:27:26.183Z,97771.14
2019-03-22T08:29:55.819Z,97779.06
2019-03-22T08:32:27.193Z,97778.77
2019-03-22T08:34:56.895Z,97773.02
2019-03-22T08:37:26.516Z,97772.00
2019-03-22T08:39:57.020Z,97773.00
2019-03-22T08:42:27.465Z,97773.89
2019-03-22T08:44:57.446Z,97767.87
2019-03-22T08:47:34.375Z,97765.33
2019-03-22T08:50:06.309Z,97762.53
2019-03-22T08:52:36.247Z,97759.37
2019-03-22T08:55:08.320Z,97763.00
2019-03-22T08:57:39.944Z,97761.59
2019-03-22T09:00:10.575Z,97756.22
2019-03-22T09:02:44.158Z,97753.44
2019-03-22T09:05:19.442Z,97754.59
2019-03-22T09:07:50.828Z,97757.28
2019-03-22T09:10:21.668Z,97757.53
2019-03-22T09:12:52.875Z,97752.05
2019-03-22T09:15:22.444Z,97755.85
2019-03-22T09:17:52.407Z,97758.30
2019-03-22T09:20:22.111Z,97759.20
2019-03-22T09:22:54.648Z,97760.48
2019-03-22T09:25:27.090Z,97754.45
2019-03-22T09:27:59.720Z,97756.44
2019-03-22T09:30:29.423Z,97760.14
2019-03-22T09:33:05.776Z,97765.23
2019-03-22T09:35:39.984Z,97465.28
2019-03-22T09:38:19.501Z,97784.36
2019-03-22T09:40:49.795Z,97754.91
2019-03-22T09:43:19.588Z,97746.48
2019-03-22T09:45:49.638Z,97752.04
2019-03-22T09:48:19.247Z,97747.66
2019-03-22T09:50:49.170Z,97748.95
2019-03-22T09:53:19.248Z,97745.14
2019-03-22T09:55:48.986Z,97744.05
2019-03-22T09:58:22.493Z,97739.00
2019-03-22T10:00:52.118Z,97739.59
2019-03-22T10:03:23.753Z,97735.11
2019-03-22T10:05:54.309Z,97733.34
2019-03-22T10:08:26.638Z,97763.88
2019-03-22T10:11:01.878Z,97739.63
2019-03-22T10:13:34.322Z,97734.41
2019-03-22T10:16:03.995Z,97728.22
2019-03-22T10:18:36.674Z,97748.67
2019-03-22T10:21:06.353Z,97726.52
2019-03-22T10:23:47.015Z,97720.27
2019-03-22T10:26:16.719Z,97718.20
2019-03-22T10:28:48.104Z,97724.82
2019-03-22T10:31:36.177Z,97722.73
2019-03-22T10:33:57.883Z,97713.66
2019-03-22T10:36:27.500Z,97716.60
2019-03-22T10:38:58.528Z,97710.82
2019-03-22T10:41:28.358Z,97716.55
2019-03-22T10:44:05.203Z,97723.73
2019-03-22T10:46:36.232Z,97713.57
2019-03-22T10:49:08.967Z,97713.66
2019-03-22T10:51:40.428Z,97701.20
2019-03-22T10:54:12.499Z,97705.09
2019-03-22T10:56:43.374Z,97707.42
2019-03-22T10:59:13.357Z,97709.59
2019-03-22T11:01:52.368Z,97709.83
2019-03-22T11:04:18.969Z,97706.91
2019-03-22T11:06:48.702Z,97705.28
2019-03-22T11:09:20.878Z,97708.00
2019-03-22T11:11:50.849Z,97715.89
2019-03-22T11:14:23.829Z,97711.83
2019-03-22T11:16:57.212Z,97714.78
2019-03-22T11:19:28.145Z,97711.05
2019-03-22T11:22:02.404Z,97707.78
2019-03-22T11:24:33.746Z,97708.40
2019-03-22T11:27:03.557Z,97703.23
2019-03-22T11:29:36.110Z,97706.22
2019-03-22T11:32:12.506Z,97700.53
2019-03-22T11:34:40.040Z,97698.80
2019-03-22T11:37:10.902Z,97705.64
2019-03-22T11:39:43.207Z,97698.98
2019-03-22T11:42:14.070Z,97693.86
2019-03-22T11:44:46.936Z,97695.31
2019-03-22T11:47:21.413Z,97697.48
2019-03-22T11:49:51.097Z,97692.55
2019-03-22T11:52:27.071Z,97700.02
2019-03-22T11:54:58.206Z,97690.10
2019-03-22T11:57:38.087Z,97692.55
2019-03-22T12:00:12.491Z,97684.77
2019-03-22T12:02:42.143Z,97686.66
2019-03-22T12:05:14.910Z,97687.42
2019-03-22T12:07:51.408Z,97687.12
2019-03-22T12:10:22.835Z,97685.53
2019-03-22T12:12:53.061Z,97696.20
2019-03-22T12:15:25.482Z,97680.73
2019-03-22T12:17:57.056Z,97680.65
2019-03-22T12:20:27.052Z,97682.50
2019-03-22T12:22:56.697Z,97681.95
2019-03-22T12:25:28.021Z,97678.27
2019-03-22T12:28:01.094Z,97678.31
2019-03-22T12:30:30.803Z,97673.06
2019-03-22T12:33:01.042Z,97670.17
2019-03-22T12:35:31.255Z,97664.38
2019-03-22T12:38:02.612Z,97670.70
2019-03-22T12:40:34.163Z,97668.53
2019-03-22T12:43:04.283Z,97666.94
2019-03-22T12:45:39.327Z,97664.16
2019-03-22T12:48:09.080Z,97664.94
2019-03-22T12:50:38.751Z,97665.59
2019-03-22T12:53:11.817Z,97662.56
2019-03-22T12:55:46.068Z,97660.35
2019-03-22T12:58:18.568Z,97659.03
2019-03-22T13:00:49.094Z,97658.27
2019-03-22T13:03:18.753Z,97654.66
2019-03-22T13:05:49.003Z,97657.49
2019-03-22T13:08:21.612Z,97650.02
2019-03-22T13:10:52.313Z,97647.09
2019-03-22T13:13:28.087Z,97647.73
2019-03-22T13:16:00.085Z,97646.56
2019-03-22T13:18:33.242Z,97641.00
2019-03-22T13:21:03.268Z,97632.80
2019-03-22T13:23:37.106Z,97637.68
2019-03-22T13:26:07.177Z,97633.42
2019-03-22T13:28:36.840Z,97629.59
2019-03-22T13:31:06.861Z,97622.05
2019-03-22T13:33:38.012Z,97614.66
2019-03-22T13:36:10.589Z,97619.37
2019-03-22T13:38:42.359Z,97619.03
2019-03-22T13:41:16.121Z,97621.36
2019-03-22T13:43:46.546Z,97620.08
2019-03-22T13:46:17.813Z,97612.65
2019-03-22T13:48:49.958Z,97617.20
2019-03-22T13:51:22.537Z,97612.12
2019-03-22T13:53:52.145Z,97609.00
2019-03-22T13:56:25.540Z,97605.97
2019-03-22T13:58:58.176Z,97607.34
2019-03-22T14:01:27.937Z,97608.86
2019-03-22T14:04:00.328Z,97600.95
2019-03-22T14:06:31.231Z,97600.50
2019-03-22T14:09:00.833Z,97595.75
2019-03-22T14:11:30.633Z,97591.11
2019-03-22T14:14:00.282Z,97596.66
2019-03-22T14:16:32.029Z,97592.37
2019-03-22T14:19:05.117Z,97592.16
2019-03-22T14:21:34.914Z,97587.72
2019-03-22T14:24:04.530Z,97587.81
2019-03-22T14:26:41.823Z,97583.27
2019-03-22T14:29:11.617Z,97583.70
2019-03-22T14:31:41.242Z,97583.16
2019-03-22T14:34:10.934Z,97572.31
2019-03-22T14:36:40.571Z,97573.38
2019-03-22T14:39:10.434Z,97567.34
2019-03-22T14:41:40.246Z,97561.26
2019-03-22T14:44:10.679Z,97558.05
2019-03-22T14:46:40.350Z,97552.24
2019-03-22T14:49:11.281Z,97555.84
2019-03-22T14:51:40.960Z,97558.20
2019-03-22T14:54:10.791Z,97560.05
2019-03-22T14:56:40.658Z,97556.73
2019-03-22T14:59:13.922Z,97551.42
2019-03-22T15:01:43.704Z,97548.50
2019-03-22T15:04:13.708Z,97544.49
2019-03-22T15:06:44.836Z,97543.67
2019-03-22T15:09:16.159Z,97543.52
2019-03-22T15:11:47.471Z,97540.60
2019-03-22T15:14:28.868Z,97537.92
2019-03-22T15:17:36.604Z,97537.33
2019-03-22T15:20:30.244Z,97528.27
2019-03-22T15:23:37.211Z,97533.44
2019-03-22T15:26:25.772Z,97523.24
2019-03-22T15:32:15.365Z,97522.99
2019-03-22T15:35:16.314Z,97527.22
2019-03-22T15:38:20.551Z,97528.81
2019-03-22T15:40:55.638Z,97520.47
2019-03-22T15:43:25.284Z,97263.66
2019-03-22T15:45:56.383Z,96401.17
2019-03-22T15:48:27.861Z,97516.33
2019-03-22T15:50:59.294Z,97523.53
2019-03-22T15:53:29.007Z,97537.19
2019-03-22T15:56:00.137Z,97519.11
2019-03-22T15:58:33.232Z,97518.00
2019-03-22T16:01:02.960Z,97511.14
2019-03-22T16:03:43.946Z,97510.11
2019-03-22T16:06:04.915Z,97506.80
2019-03-22T16:08:34.704Z,97507.00
2019-03-22T16:11:11.361Z,97501.97
2019-03-22T16:13:51.614Z,97507.64
2019-03-22T16:16:27.041Z,97510.32
2019-03-22T16:18:56.710Z,97511.47
2019-03-22T16:21:29.316Z,97506.95
2019-03-22T16:23:59.254Z,97507.81
2019-03-22T16:26:28.899Z,97506.32
2019-03-22T16:29:01.019Z,97507.61
2019-03-22T16:31:31.870Z,97502.45
2019-03-22T16:34:05.291Z,97506.40
2019-03-22T16:36:36.181Z,97511.39
2019-03-22T16:39:10.671Z,97508.25
2019-03-22T16:41:40.285Z,97507.14
2019-03-22T16:44:12.405Z,97511.34
2019-03-22T16:46:42.302Z,97508.55
2019-03-22T16:49:13.811Z,97502.59
2019-03-22T16:51:46.452Z,97500.91
2019-03-22T16:54:16.107Z,97502.95
2019-03-22T16:56:50.044Z,97499.98
2019-03-22T16:59:19.622Z,97503.41
2019-03-22T17:01:49.720Z,97507.95
2019-03-22T17:04:19.312Z,97512.62
2019-03-22T17:06:51.745Z,97513.73
2019-03-22T17:09:21.388Z,97509.45
2019-03-22T17:11:52.573Z,97511.55
2019-03-22T17:14:23.117Z,97505.09
2019-03-22T17:16:53.163Z,97503.93
2019-03-22T17:19:28.031Z,97506.25
2019-03-22T17:22:01.182Z,97506.38
2019-03-22T17:24:30.794Z,97507.03
2019-03-22T17:27:00.501Z,97505.91
2019-03-22T17:29:31.251Z,97510.97
2019-03-22T17:32:05.560Z,97514.34
2019-03-22T17:34:37.625Z,97517.02
2019-03-22T17:37:09.778Z,97517.84
2019-03-22T17:39:41.635Z,97515.36
2019-03-22T17:42:11.282Z,97512.66
2019-03-22T17:44:42.705Z,97520.59
2019-03-22T17:47:12.853Z,97515.06
2019-03-22T17:49:48.178Z,97518.87
2019-03-22T17:52:13.971Z,97519.11
2019-03-22T17:54:43.599Z,97521.98
2019-03-22T17:57:18.853Z,97521.97
2019-03-22T17:59:48.684Z,97522.38
2019-03-22T18:02:18.339Z,97526.81
2019-03-22T18:04:52.459Z,97523.14
2019-03-22T18:07:22.130Z,97527.16
2019-03-22T18:09:52.942Z,97522.23
2019-03-22T18:12:22.867Z,97529.96
2019-03-22T18:14:58.673Z,97530.26
2019-03-22T18:17:29.750Z,97528.95
2019-03-22T18:20:00.517Z,97523.48
2019-03-22T18:22:36.603Z,97531.91
2019-03-22T18:25:12.359Z,97524.61
2019-03-22T18:27:42.060Z,97529.53
2019-03-22T18:30:14.094Z,97524.72
2019-03-22T18:32:45.500Z,97530.11
2019-03-22T18:35:15.351Z,97529.00
2019-03-22T18:37:44.972Z,97528.45
2019-03-22T18:40:15.480Z,97530.59
2019-03-22T18:42:45.360Z,97531.44
2019-03-22T18:45:16.576Z,97527.38
2019-03-22T18:47:49.491Z,97535.67
2019-03-22T18:50:25.720Z,97537.30
2019-03-22T18:53:00.939Z,97531.17
2019-03-22T18:55:36.174Z,97534.64
2019-03-22T18:58:07.651Z,97538.91
2019-03-22T19:00:37.282Z,97541.58
2019-03-22T19:03:12.518Z,97539.46
2019-03-22T19:05:43.915Z,97535.97
2019-03-22T19:08:19.071Z,97534.39
2019-03-22T19:10:52.795Z,97536.22
2019-03-22T19:13:30.839Z,97534.63
2019-03-22T19:16:02.216Z,97539.08
2019-03-22T19:18:34.255Z,97540.42
2019-03-22T19:21:07.789Z,97532.65
2019-03-22T19:23:37.496Z,97535.00
2019-03-22T19:26:09.117Z,97531.55
2019-03-22T19:28:38.738Z,97535.33
2019-03-22T19:31:10.735Z,97536.63
2019-03-22T19:33:42.491Z,97527.33
2019-03-22T19:36:14.721Z,97528.91
2019-03-22T19:38:49.104Z,97538.05
2019-03-22T19:41:21.759Z,97536.25
2019-03-22T19:43:51.392Z,97537.04
2019-03-22T19:46:23.832Z,97532.95
2019-03-22T19:48:54.361Z,97535.09
2019-03-22T19:51:24.046Z,97537.41
2019-03-22T19:54:03.010Z,97540.22
2019-03-22T19:56:32.604Z,97538.96
2019-03-22T19:59:02.442Z,97542.22
2019-03-22T20:01:36.974Z,97544.77
2019-03-22T20:04:06.852Z,97540.50
2019-03-22T20:06:36.481Z,97261.66
2019-03-22T20:09:11.936Z,97536.80
2019-03-22T20:11:41.537Z,97539.59
2019-03-22T20:14:13.347Z,97534.06
2019-03-22T20:16:44.612Z,97540.03
2019-03-22T20:19:14.214Z,97534.66
2019-03-22T20:21:43.802Z,97532.36
2019-03-22T20:24:15.323Z,97537.45
2019-03-22T20:26:44.897Z,97541.55
2019-03-22T20:29:16.017Z,97539.84
2019-03-22T20:31:47.439Z,97542.28
2019-03-22T20:34:17.089Z,97536.81
2019-03-22T20:36:46.686Z,97542.76
2019-03-22T20:39:19.464Z,97542.17
2019-03-22T20:41:52.420Z,97543.88
2019-03-22T20:44:34.115Z,97542.22
2019-03-22T20:47:00.854Z,97547.44
2019-03-22T20:49:35.570Z,97544.31
2019-03-22T20:52:05.491Z,97540.55
2019-03-22T20:54:35.084Z,97223.40
2019-03-22T20:57:06.954Z,97535.33
2019-03-22T20:59:39.172Z,97545.83
2019-03-22T21:02:08.804Z,97540.54
2019-03-22T21:04:45.983Z,97536.95
2019-03-22T21:07:19.524Z,97542.91
2019-03-22T21:09:50.284Z,97478.63
2019-03-22T21:12:21.554Z,97543.50
2019-03-22T21:14:51.152Z,97543.98
2019-03-22T21:17:24.059Z,97535.98
2019-03-22T21:19:53.677Z,97540.34
2019-03-22T21:22:26.422Z,97544.30
2019-03-22T21:25:20.261Z,97540.94
2019-03-22T21:27:51.461Z,97539.50
2019-03-22T21:30:22.565Z,97568.80
2019-03-22T21:32:52.355Z,97540.69
2019-03-22T21:35:23.123Z,97540.43
2019-03-22T21:37:55.705Z,97546.73
2019-03-22T21:40:27.961Z,97544.91
2019-03-22T21:42:59.088Z,97539.76
2019-03-22T21:45:31.414Z,97535.14
2019-03-22T21:48:01.160Z,97540.70
2019-03-22T21:50:31.011Z,97534.97
2019-03-22T21:53:00.620Z,97536.70
2019-03-22T21:55:33.177Z,97535.44
2019-03-22T21:58:04.352Z,97538.81
2019-03-22T22:00:34.025Z,97537.87
2019-03-22T22:03:06.748Z,97534.66
2019-03-22T22:05:36.466Z,97530.38
2019-03-22T22:08:06.211Z,97534.80
2019-03-22T22:10:42.199Z,97530.36
2019-03-22T22:13:13.277Z,97533.43
2019-03-22T22:15:43.028Z,97528.12
2019-03-22T22:18:12.665Z,97531.91
2019-03-22T22:20:42.510Z,97524.48
2019-03-22T22:23:15.543Z,97523.75
2019-03-22T22:25:48.194Z,97524.10
2019-03-22T22:28:17.853Z,97524.42
2019-03-22T22:30:47.451Z,97523.16
2019-03-22T22:33:17.150Z,97519.83
2019-03-22T22:35:58.231Z,97527.48
2019-03-22T22:38:23.423Z,97527.88
2019-03-22T22:40:55.582Z,97525.72
2019-03-22T22:43:25.189Z,97529.50
2019-03-22T22:45:54.778Z,97524.55
2019-03-22T22:48:24.428Z,97519.86
2019-03-22T22:51:00.205Z,97521.25
2019-03-22T22:53:30.836Z,97521.02
2019-03-22T22:56:00.440Z,97524.53
2019-03-22T22:58:30.073Z,97526.98
2019-03-22T23:00:59.757Z,97520.14
2019-03-22T23:03:31.059Z,97525.24
2019-03-22T23:06:09.119Z,97525.56
2019-03-22T23:08:31.973Z,97528.50
2019-03-22T23:11:03.321Z,97524.05
2019-03-22T23:13:33.503Z,97526.98
2019-03-22T23:16:03.205Z,97525.30
2019-03-22T23:18:32.798Z,97527.21
2019-03-22T23:21:05.783Z,97523.26
2019-03-22T23:23:35.391Z,97520.41
2019-03-22T23:26:06.692Z,97523.19
2019-03-22T23:28:40.409Z,97515.21
2019-03-22T23:31:10.324Z,97517.28
2019-03-22T23:33:42.988Z,97516.06
2019-03-22T23:36:20.509Z,97524.06
2019-03-22T23:38:48.197Z,97523.49
2019-03-22T23:41:17.809Z,97521.95
2019-03-22T23:43:48.220Z,97529.37
2019-03-22T23:46:20.708Z,97527.28
2019-03-22T23:48:53.030Z,97526.06
2019-03-22T23:51:26.084Z,97530.14
2019-03-22T23:53:58.201Z,97529.59
2019-03-22T23:56:29.230Z,97195.40
2019-03-22T23:59:00.335Z,97529.88
